sensor_id;sensor_type;location;lat;lon;timestamp;pressure;altitude;pressure_sealevel;temperature;humidity
72685;BME280;61365;52.162;4.500;2024-03-25T00:01:36;100776.56;;;7.41;100.00
72685;BME280;61365;52.162;4.500;2024-03-25T00:04:02;100775.63;;;7.36;100.00
72685;BME280;61365;52.162;4.500;2024-03-25T00:06:29;100771.44;;;7.52;100.00
72685;BME280;61365;52.162;4.500;2024-03-25T00:08:59;100769.47;;;7.29;100.00
72685;BME280;61365;52.162;4.500;2024-03-25T00:11:26;100774.78;;;7.37;100.00
72685;BME280;61365;52.162;4.500;2024-03-25T00:13:52;100769.50;;;7.35;100.00
72685;BME280;61365;52.162;4.500;2024-03-25T00:16:18;100760.84;;;7.40;100.00
72685;BME280;61365;52.162;4.500;2024-03-25T00:18:44;100753.88;;;7.39;100.00
72685;BME280;61365;52.162;4.500;2024-03-25T00:21:10;100755.59;;;7.36;100.00
72685;BME280;61365;52.162;4.500;2024-03-25T00:23:36;100766.19;;;7.49;100.00
72685;BME280;61365;52.162;4.500;2024-03-25T00:26:02;100760.25;;;7.64;100.00
72685;BME280;61365;52.162;4.500;2024-03-25T00:28:28;100753.06;;;7.41;100.00
72685;BME280;61365;52.162;4.500;2024-03-25T00:30:54;100762.66;;;7.44;100.00
72685;BME280;61365;52.162;4.500;2024-03-25T00:33:20;100762.53;;;7.33;100.00
72685;BME280;61365;52.162;4.500;2024-03-25T00:35:47;100764.22;;;7.26;100.00
72685;BME280;61365;52.162;4.500;2024-03-25T00:38:13;100764.00;;;7.09;100.00
72685;BME280;61365;52.162;4.500;2024-03-25T00:40:39;100763.06;;;7.04;100.00
72685;BME280;61365;52.162;4.500;2024-03-25T00:43:05;100770.03;;;7.03;100.00
72685;BME280;61365;52.162;4.500;2024-03-25T00:45:32;100767.38;;;7.02;100.00
72685;BME280;61365;52.162;4.500;2024-03-25T00:47:58;100768.16;;;6.93;100.00
72685;BME280;61365;52.162;4.500;2024-03-25T00:50:28;100772.56;;;6.97;100.00
72685;BME280;61365;52.162;4.500;2024-03-25T00:52:54;100773.41;;;6.98;100.00
72685;BME280;61365;52.162;4.500;2024-03-25T00:55:20;100778.63;;;6.96;100.00
72685;BME280;61365;52.162;4.500;2024-03-25T00:57:46;100773.38;;;6.93;100.00
72685;BME280;61365;52.162;4.500;2024-03-25T01:00:13;100775.78;;;6.79;100.00
72685;BME280;61365;52.162;4.500;2024-03-25T01:02:41;100773.19;;;6.79;100.00
72685;BME280;61365;52.162;4.500;2024-03-25T01:05:08;100776.69;;;6.81;100.00
72685;BME280;61365;52.162;4.500;2024-03-25T01:07:35;100775.78;;;6.78;100.00
72685;BME280;61365;52.162;4.500;2024-03-25T01:10:01;100781.84;;;6.76;100.00
72685;BME280;61365;52.162;4.500;2024-03-25T01:12:27;100782.81;;;6.85;100.00
72685;BME280;61365;52.162;4.500;2024-03-25T01:14:54;100788.03;;;6.83;100.00
72685;BME280;61365;52.162;4.500;2024-03-25T01:17:20;100785.38;;;6.80;100.00
72685;BME280;61365;52.162;4.500;2024-03-25T01:19:46;100788.03;;;6.83;100.00
72685;BME280;61365;52.162;4.500;2024-03-25T01:22:12;100779.28;;;6.80;100.00
72685;BME280;61365;52.162;4.500;2024-03-25T01:24:38;100789.75;;;6.81;100.00
72685;BME280;61365;52.162;4.500;2024-03-25T01:27:04;100779.44;;;6.90;100.00
72685;BME280;61365;52.162;4.500;2024-03-25T01:29:30;100795.81;;;6.79;100.00
72685;BME280;61365;52.162;4.500;2024-03-25T01:31:56;100789.59;;;6.72;100.00
72685;BME280;61365;52.162;4.500;2024-03-25T01:34:25;100781.88;;;6.78;100.00
72685;BME280;61365;52.162;4.500;2024-03-25T01:36:51;100786.22;;;6.79;100.00
72685;BME280;61365;52.162;4.500;2024-03-25T01:39:20;100778.31;;;6.71;100.00
72685;BME280;61365;52.162;4.500;2024-03-25T01:41:46;100781.91;;;6.81;100.00
72685;BME280;61365;52.162;4.500;2024-03-25T01:44:12;100778.34;;;6.74;100.00
72685;BME280;61365;52.162;4.500;2024-03-25T01:46:38;100778.44;;;6.82;100.00
72685;BME280;61365;52.162;4.500;2024-03-25T01:49:05;100774.03;;;6.78;100.00
72685;BME280;61365;52.162;4.500;2024-03-25T01:51:32;100778.25;;;6.67;100.00
72685;BME280;61365;52.162;4.500;2024-03-25T01:53:59;100770.38;;;6.64;100.00
72685;BME280;61365;52.162;4.500;2024-03-25T01:56:27;100770.38;;;6.64;100.00
72685;BME280;61365;52.162;4.500;2024-03-25T01:58:58;100774.69;;;6.63;100.00
72685;BME280;61365;52.162;4.500;2024-03-25T02:01:26;100773.91;;;6.69;100.00
72685;BME280;61365;52.162;4.500;2024-03-25T02:03:54;100779.16;;;6.72;100.00
72685;BME280;61365;52.162;4.500;2024-03-25T02:06:21;100782.66;;;6.72;100.00
72685;BME280;61365;52.162;4.500;2024-03-25T02:08:49;100789.53;;;6.66;100.00
72685;BME280;61365;52.162;4.500;2024-03-25T02:11:18;100786.84;;;6.59;100.00
72685;BME280;61365;52.162;4.500;2024-03-25T02:13:45;100785.09;;;6.60;100.00
72685;BME280;61365;52.162;4.500;2024-03-25T02:16:11;100781.53;;;6.53;100.00
72685;BME280;61365;52.162;4.500;2024-03-25T02:18:37;100788.38;;;6.46;100.00
72685;BME280;61365;52.162;4.500;2024-03-25T02:21:03;100777.84;;;6.40;100.00
72685;BME280;61365;52.162;4.500;2024-03-25T02:23:30;100776.88;;;6.34;100.00
72685;BME280;61365;52.162;4.500;2024-03-25T02:25:59;100768.09;;;6.27;100.00
72685;BME280;61365;52.162;4.500;2024-03-25T02:28:26;100764.66;;;6.28;100.00
72685;BME280;61365;52.162;4.500;2024-03-25T02:30:52;100757.84;;;6.39;100.00
72685;BME280;61365;52.162;4.500;2024-03-25T02:33:18;100761.09;;;6.23;100.00
72685;BME280;61365;52.162;4.500;2024-03-25T02:35:44;100757.53;;;6.16;100.00
72685;BME280;61365;52.162;4.500;2024-03-25T02:38:10;100753.16;;;6.15;100.00
72685;BME280;61365;52.162;4.500;2024-03-25T02:40:37;100753.13;;;6.13;100.00
72685;BME280;61365;52.162;4.500;2024-03-25T02:43:03;100747.91;;;6.12;100.00
72685;BME280;61365;52.162;4.500;2024-03-25T02:45:30;100749.53;;;6.07;100.00
72685;BME280;61365;52.162;4.500;2024-03-25T02:47:56;100752.03;;;6.00;100.00
72685;BME280;61365;52.162;4.500;2024-03-25T02:50:22;100749.44;;;6.00;100.00
72685;BME280;61365;52.162;4.500;2024-03-25T02:52:48;100758.06;;;5.98;100.00
72685;BME280;61365;52.162;4.500;2024-03-25T02:55:14;100755.41;;;5.96;100.00
72685;BME280;61365;52.162;4.500;2024-03-25T02:57:40;100743.28;;;5.97;100.00
72685;BME280;61365;52.162;4.500;2024-03-25T03:00:06;100749.34;;;5.96;100.00
72685;BME280;61365;52.162;4.500;2024-03-25T03:02:34;100750.06;;;5.87;100.00
72685;BME280;61365;52.162;4.500;2024-03-25T03:05:00;100743.84;;;5.80;100.00
72685;BME280;61365;52.162;4.500;2024-03-25T03:07:28;100741.28;;;5.82;100.00
72685;BME280;61365;52.162;4.500;2024-03-25T03:09:54;100741.31;;;5.83;100.00
72685;BME280;61365;52.162;4.500;2024-03-25T03:12:20;100738.69;;;5.82;100.00
72685;BME280;61365;52.162;4.500;2024-03-25T03:14:46;100735.06;;;5.72;100.00
72685;BME280;61365;52.162;4.500;2024-03-25T03:17:12;100740.22;;;5.69;100.00
72685;BME280;61365;52.162;4.500;2024-03-25T03:19:38;100743.66;;;5.68;100.00
72685;BME280;61365;52.162;4.500;2024-03-25T03:22:04;100738.38;;;5.63;100.00
72685;BME280;61365;52.162;4.500;2024-03-25T03:24:30;100739.19;;;5.61;100.00
72685;BME280;61365;52.162;4.500;2024-03-25T03:26:57;100740.03;;;5.60;100.00
72685;BME280;61365;52.162;4.500;2024-03-25T03:29:23;100732.13;;;5.53;100.00
72685;BME280;61365;52.162;4.500;2024-03-25T03:31:49;100735.59;;;5.52;100.00
72685;BME280;61365;52.162;4.500;2024-03-25T03:34:15;100735.53;;;5.49;100.00
72685;BME280;61365;52.162;4.500;2024-03-25T03:36:41;100733.84;;;5.51;100.00
72685;BME280;61365;52.162;4.500;2024-03-25T03:39:07;100735.53;;;5.49;100.00
72685;BME280;61365;52.162;4.500;2024-03-25T03:41:36;100727.66;;;5.46;100.00
72685;BME280;61365;52.162;4.500;2024-03-25T03:44:02;100725.00;;;5.43;100.00
72685;BME280;61365;52.162;4.500;2024-03-25T03:46:28;100728.44;;;5.42;100.00
72685;BME280;61365;52.162;4.500;2024-03-25T03:48:54;100727.41;;;5.34;100.00
72685;BME280;61365;52.162;4.500;2024-03-25T03:51:20;100722.28;;;5.37;100.00
72685;BME280;61365;52.162;4.500;2024-03-25T03:53:47;100730.88;;;5.33;100.00
72685;BME280;61365;52.162;4.500;2024-03-25T03:56:13;100724.81;;;5.32;100.00
72685;BME280;61365;52.162;4.500;2024-03-25T03:58:39;100723.03;;;5.30;100.00
72685;BME280;61365;52.162;4.500;2024-03-25T04:01:13;100727.34;;;5.28;100.00
72685;BME280;61365;52.162;4.500;2024-03-25T04:03:42;100728.19;;;5.28;100.00
72685;BME280;61365;52.162;4.500;2024-03-25T04:06:11;100728.19;;;5.26;100.00
72685;BME280;61365;52.162;4.500;2024-03-25T04:08:38;100718.56;;;5.22;100.00
72685;BME280;61365;52.162;4.500;2024-03-25T04:11:05;100728.06;;;5.22;100.00
72685;BME280;61365;52.162;4.500;2024-03-25T04:13:33;100726.38;;;5.24;100.00
72685;BME280;61365;52.162;4.500;2024-03-25T04:16:03;100720.31;;;5.25;100.00
72685;BME280;61365;52.162;4.500;2024-03-25T04:18:30;100724.81;;;5.32;100.00
72685;BME280;61365;52.162;4.500;2024-03-25T04:20:58;100721.41;;;5.36;100.00
72685;BME280;61365;52.162;4.500;2024-03-25T04:23:25;100724.03;;;5.36;100.00
72685;BME280;61365;52.162;4.500;2024-03-25T04:25:52;100721.28;;;5.29;100.00
72685;BME280;61365;52.162;4.500;2024-03-25T04:28:19;100717.78;;;5.28;100.00
72685;BME280;61365;52.162;4.500;2024-03-25T04:30:52;100721.22;;;5.27;100.00
72685;BME280;61365;52.162;4.500;2024-03-25T04:33:18;100718.50;;;5.21;100.00
72685;BME280;61365;52.162;4.500;2024-03-25T04:35:45;100721.16;;;5.22;100.00
72685;BME280;61365;52.162;4.500;2024-03-25T04:38:12;100729.03;;;5.25;100.00
72685;BME280;61365;52.162;4.500;2024-03-25T04:40:39;100717.78;;;5.26;100.00
72685;BME280;61365;52.162;4.500;2024-03-25T04:43:05;100723.81;;;5.25;100.00
72685;BME280;61365;52.162;4.500;2024-03-25T04:45:31;100718.50;;;5.21;100.00
72685;BME280;61365;52.162;4.500;2024-03-25T04:47:57;100725.41;;;5.19;100.00
72685;BME280;61365;52.162;4.500;2024-03-25T04:50:23;100722.78;;;5.17;100.00
72685;BME280;61365;52.162;4.500;2024-03-25T04:52:50;100727.91;;;5.13;100.00
72685;BME280;61365;52.162;4.500;2024-03-25T04:55:16;100730.47;;;5.11;100.00
72685;BME280;61365;52.162;4.500;2024-03-25T04:57:42;100727.88;;;5.11;100.00
72685;BME280;61365;52.162;4.500;2024-03-25T05:00:08;100727.94;;;5.14;100.00
72685;BME280;61365;52.162;4.500;2024-03-25T05:02:37;100736.50;;;5.10;100.00
72685;BME280;61365;52.162;4.500;2024-03-25T05:05:04;100741.63;;;5.04;100.00
72685;BME280;61365;52.162;4.500;2024-03-25T05:07:33;100737.25;;;5.03;100.00
72685;BME280;61365;52.162;4.500;2024-03-25T05:09:59;100736.34;;;5.01;100.00
72685;BME280;61365;52.162;4.500;2024-03-25T05:12:25;100738.09;;;5.02;100.00
72685;BME280;61365;52.162;4.500;2024-03-25T05:14:56;100735.59;;;5.06;100.00
72685;BME280;61365;52.162;4.500;2024-03-25T05:17:22;100739.84;;;5.03;100.00
72685;BME280;61365;52.162;4.500;2024-03-25T05:19:48;100736.31;;;4.99;100.00
72685;BME280;61365;52.162;4.500;2024-03-25T05:22:14;100743.34;;;5.05;100.00
72685;BME280;61365;52.162;4.500;2024-03-25T05:24:41;100737.22;;;5.01;100.00
72685;BME280;61365;52.162;4.500;2024-03-25T05:27:07;100739.78;;;5.00;100.00
72685;BME280;61365;52.162;4.500;2024-03-25T05:29:34;100731.78;;;4.90;100.00
72685;BME280;61365;52.162;4.500;2024-03-25T05:32:00;100729.13;;;4.87;100.00
72685;BME280;61365;52.162;4.500;2024-03-25T05:34:27;100728.97;;;4.78;100.00
72685;BME280;61365;52.162;4.500;2024-03-25T05:36:54;100727.19;;;4.77;100.00
72685;BME280;61365;52.162;4.500;2024-03-25T05:39:20;100729.66;;;4.71;100.00
72685;BME280;61365;52.162;4.500;2024-03-25T05:41:47;100721.59;;;4.58;100.00
72685;BME280;61365;52.162;4.500;2024-03-25T05:44:13;100717.34;;;4.62;100.00
72685;BME280;61365;52.162;4.500;2024-03-25T05:46:40;100727.00;;;4.69;100.00
72685;BME280;61365;52.162;4.500;2024-03-25T05:49:06;100727.84;;;4.66;100.00
72685;BME280;61365;52.162;4.500;2024-03-25T05:51:32;100720.13;;;4.71;100.00
72685;BME280;61365;52.162;4.500;2024-03-25T05:53:59;100716.00;;;4.81;100.00
72685;BME280;61365;52.162;4.500;2024-03-25T05:56:25;100718.66;;;4.84;100.00
72685;BME280;61365;52.162;4.500;2024-03-25T05:58:59;100718.22;;;5.04;100.00
72685;BME280;61365;52.162;4.500;2024-03-25T06:01:26;100716.81;;;5.21;100.00
72685;BME280;61365;52.162;4.500;2024-03-25T06:03:53;100712.66;;;5.33;100.00
72685;BME280;61365;52.162;4.500;2024-03-25T06:06:19;100709.25;;;5.35;100.00
72685;BME280;61365;52.162;4.500;2024-03-25T06:08:45;100702.53;;;5.48;100.00
72685;BME280;61365;52.162;4.500;2024-03-25T06:11:11;100698.53;;;5.67;100.00
72685;BME280;61365;52.162;4.500;2024-03-25T06:13:37;100698.72;;;5.78;100.00
72685;BME280;61365;52.162;4.500;2024-03-25T06:16:04;100699.56;;;5.77;100.00
72685;BME280;61365;52.162;4.500;2024-03-25T06:18:30;100697.88;;;5.81;100.00
72685;BME280;61365;52.162;4.500;2024-03-25T06:20:56;100684.16;;;5.93;100.00
72685;BME280;61365;52.162;4.500;2024-03-25T06:23:23;100693.88;;;6.00;100.00
72685;BME280;61365;52.162;4.500;2024-03-25T06:25:50;100687.13;;;6.14;100.00
72685;BME280;61365;52.162;4.500;2024-03-25T06:28:17;100690.19;;;6.47;100.00
72685;BME280;61365;52.162;4.500;2024-03-25T06:30:44;100685.22;;;6.66;100.00
72685;BME280;61365;52.162;4.500;2024-03-25T06:33:29;100687.28;;;6.93;100.00
72685;BME280;61365;52.162;4.500;2024-03-25T06:36:14;100691.53;;;6.83;100.00
72685;BME280;61365;52.162;4.500;2024-03-25T06:38:40;100686.25;;;6.82;100.00
72685;BME280;61365;52.162;4.500;2024-03-25T06:41:06;100690.09;;;7.10;100.00
72685;BME280;61365;52.162;4.500;2024-03-25T06:43:32;100679.03;;;7.36;100.00
72685;BME280;61365;52.162;4.500;2024-03-25T06:45:58;100679.19;;;7.55;100.00
72685;BME280;61365;52.162;4.500;2024-03-25T06:48:25;100679.19;;;7.55;100.00
72685;BME280;61365;52.162;4.500;2024-03-25T06:50:54;100679.25;;;7.61;100.00
72685;BME280;61365;52.162;4.500;2024-03-25T06:53:24;100681.28;;;7.99;100.00
72685;BME280;61365;52.162;4.500;2024-03-25T06:55:51;100678.75;;;8.11;100.00
72685;BME280;61365;52.162;4.500;2024-03-25T06:58:21;100673.66;;;8.29;100.00
72685;BME280;61365;52.162;4.500;2024-03-25T07:00:49;100679.59;;;8.09;100.00
72685;BME280;61365;52.162;4.500;2024-03-25T07:03:16;100673.00;;;8.75;100.00
72685;BME280;61365;52.162;4.500;2024-03-25T07:05:49;100671.31;;;8.86;100.00
72685;BME280;61365;52.162;4.500;2024-03-25T07:08:18;100676.47;;;8.70;100.00
72685;BME280;61365;52.162;4.500;2024-03-25T07:10:47;100673.03;;;8.79;100.00
72685;BME280;61365;52.162;4.500;2024-03-25T07:13:16;100673.94;;;8.86;100.00
72685;BME280;61365;52.162;4.500;2024-03-25T07:15:42;100678.16;;;8.57;100.00
72685;BME280;61365;52.162;4.500;2024-03-25T07:18:09;100676.53;;;8.80;100.00
72685;BME280;61365;52.162;4.500;2024-03-25T07:20:39;100674.00;;;9.14;100.00
72685;BME280;61365;52.162;4.500;2024-03-25T07:23:05;100677.41;;;8.86;100.00
72685;BME280;61365;52.162;4.500;2024-03-25T07:25:31;100673.97;;;9.00;100.00
72685;BME280;61365;52.162;4.500;2024-03-25T07:27:58;100680.97;;;9.04;100.00
72685;BME280;61365;52.162;4.500;2024-03-25T07:30:24;100672.25;;;9.07;100.00
72685;BME280;61365;52.162;4.500;2024-03-25T07:32:57;100677.47;;;9.11;100.00
72685;BME280;61365;52.162;4.500;2024-03-25T07:35:24;100684.53;;;9.48;100.00
72685;BME280;61365;52.162;4.500;2024-03-25T07:37:51;100679.28;;;9.76;100.00
72685;BME280;61365;52.162;4.500;2024-03-25T07:40:18;100694.13;;;9.34;100.00
72685;BME280;61365;52.162;4.500;2024-03-25T07:42:47;100679.31;;;9.70;100.00
72685;BME280;61365;52.162;4.500;2024-03-25T07:45:14;100682.78;;;9.81;100.00
72685;BME280;61365;52.162;4.500;2024-03-25T07:47:41;100687.09;;;10.22;100.00
72685;BME280;61365;52.162;4.500;2024-03-25T07:50:07;100680.13;;;10.43;100.00
72685;BME280;61365;52.162;4.500;2024-03-25T07:52:34;100682.75;;;10.23;100.00
72685;BME280;61365;52.162;4.500;2024-03-25T07:55:06;100685.34;;;10.21;100.00
72685;BME280;61365;52.162;4.500;2024-03-25T07:57:32;100675.66;;;10.70;100.00
72685;BME280;61365;52.162;4.500;2024-03-25T07:59:59;100689.69;;;10.52;100.00
72685;BME280;61365;52.162;4.500;2024-03-25T08:02:25;100687.06;;;10.47;100.00
72685;BME280;61365;52.162;4.500;2024-03-25T08:04:51;100691.44;;;10.55;100.00
72685;BME280;61365;52.162;4.500;2024-03-25T08:07:17;100698.38;;;10.71;100.00
72685;BME280;61365;52.162;4.500;2024-03-25T08:09:43;100693.13;;;10.76;100.00
72685;BME280;61365;52.162;4.500;2024-03-25T08:12:09;100693.25;;;10.20;100.00
72685;BME280;61365;52.162;4.500;2024-03-25T08:14:38;100687.78;;;10.94;100.00
72685;BME280;61365;52.162;4.500;2024-03-25T08:17:04;100693.19;;;10.51;100.00
72685;BME280;61365;52.162;4.500;2024-03-25T08:19:30;100690.41;;;10.94;100.00
72685;BME280;61365;52.162;4.500;2024-03-25T08:21:57;100691.47;;;10.28;100.00
72685;BME280;61365;52.162;4.500;2024-03-25T08:24:23;100689.78;;;9.96;100.00
72685;BME280;61365;52.162;4.500;2024-03-25T08:26:49;100695.03;;;10.05;100.00
72685;BME280;61365;52.162;4.500;2024-03-25T08:29:15;100692.34;;;10.27;100.00
72685;BME280;61365;52.162;4.500;2024-03-25T08:31:41;100687.97;;;10.37;100.00
72685;BME280;61365;52.162;4.500;2024-03-25T08:34:07;100688.78;;;10.67;100.00
72685;BME280;61365;52.162;4.500;2024-03-25T08:36:34;100678.31;;;10.48;100.00
72685;BME280;61365;52.162;4.500;2024-03-25T08:39:00;100677.06;;;11.32;100.00
72685;BME280;61365;52.162;4.500;2024-03-25T08:41:26;100673.72;;;11.05;100.00
72685;BME280;61365;52.162;4.500;2024-03-25T08:43:52;100677.22;;;10.99;100.00
72685;BME280;61365;52.162;4.500;2024-03-25T08:46:18;100676.34;;;11.08;100.00
72685;BME280;61365;52.162;4.500;2024-03-25T08:48:44;100674.56;;;11.08;100.00
72685;BME280;61365;52.162;4.500;2024-03-25T08:51:10;100670.84;;;11.44;100.00
72685;BME280;61365;52.162;4.500;2024-03-25T08:53:36;100675.31;;;11.31;100.00
72685;BME280;61365;52.162;4.500;2024-03-25T08:56:02;100670.09;;;11.27;100.00
72685;BME280;61365;52.162;4.500;2024-03-25T08:58:29;100663.13;;;11.22;100.00
72685;BME280;61365;52.162;4.500;2024-03-25T09:00:55;100669.16;;;11.35;100.00
72685;BME280;61365;52.162;4.500;2024-03-25T09:03:21;100666.09;;;11.87;100.00
72685;BME280;61365;52.162;4.500;2024-03-25T09:05:47;100659.19;;;11.77;100.00
72685;BME280;61365;52.162;4.500;2024-03-25T09:08:13;100654.69;;;11.90;100.00
72685;BME280;61365;52.162;4.500;2024-03-25T09:10:39;100645.22;;;11.70;100.00
72685;BME280;61365;52.162;4.500;2024-03-25T09:13:29;100646.13;;;11.69;100.00
72685;BME280;61365;52.162;4.500;2024-03-25T09:15:56;100644.78;;;11.11;100.00
72685;BME280;61365;52.162;4.500;2024-03-25T09:18:22;100640.19;;;11.46;100.00
72685;BME280;61365;52.162;4.500;2024-03-25T09:20:48;100639.94;;;11.72;100.00
72685;BME280;61365;52.162;4.500;2024-03-25T09:23:15;100632.66;;;12.05;100.00
72685;BME280;61365;52.162;4.500;2024-03-25T09:25:50;100633.50;;;11.00;100.00
72685;BME280;61365;52.162;4.500;2024-03-25T09:28:17;100631.16;;;11.76;100.00
72685;BME280;61365;52.162;4.500;2024-03-25T09:30:43;100633.13;;;11.49;100.00
72685;BME280;61365;52.162;4.500;2024-03-25T09:33:09;100628.22;;;11.03;100.00
72685;BME280;61365;52.162;4.500;2024-03-25T09:35:35;100622.06;;;11.05;100.00
72685;BME280;61365;52.162;4.500;2024-03-25T09:38:02;100623.13;;;10.72;100.00
72685;BME280;61365;52.162;4.500;2024-03-25T09:40:29;100612.25;;;11.34;100.00
72685;BME280;61365;52.162;4.500;2024-03-25T09:42:59;100614.81;;;11.40;100.00
72685;BME280;61365;52.162;4.500;2024-03-25T09:45:29;100620.16;;;11.31;100.00
72685;BME280;61365;52.162;4.500;2024-03-25T09:47:55;100609.88;;;12.04;100.00
72685;BME280;61365;52.162;4.500;2024-03-25T09:50:22;100600.44;;;11.80;100.00
72685;BME280;61365;52.162;4.500;2024-03-25T09:52:48;100608.72;;;11.36;100.00
72685;BME280;61365;52.162;4.500;2024-03-25T09:55:15;100596.94;;;11.79;100.00
72685;BME280;61365;52.162;4.500;2024-03-25T09:57:42;100612.75;;;11.76;100.00
72685;BME280;61365;52.162;4.500;2024-03-25T10:00:09;100620.38;;;10.96;100.00
72685;BME280;61365;52.162;4.500;2024-03-25T10:02:40;100601.84;;;11.18;100.00
72685;BME280;61365;52.162;4.500;2024-03-25T10:05:07;100610.72;;;11.05;100.00
72685;BME280;61365;52.162;4.500;2024-03-25T10:07:34;100606.06;;;11.39;100.00
72685;BME280;61365;52.162;4.500;2024-03-25T10:10:06;100597.06;;;11.68;100.00
72685;BME280;61365;52.162;4.500;2024-03-25T10:12:35;100592.75;;;11.58;100.00
72685;BME280;61365;52.162;4.500;2024-03-25T10:15:03;100592.84;;;11.49;100.00
72685;BME280;61365;52.162;4.500;2024-03-25T10:17:30;100591.50;;;11.99;100.00
72685;BME280;61365;52.162;4.500;2024-03-25T10:19:57;100587.09;;;11.98;100.00
72685;BME280;61365;52.162;4.500;2024-03-25T10:22:23;100586.53;;;11.71;100.00
72685;BME280;61365;52.162;4.500;2024-03-25T10:24:49;100591.72;;;11.76;100.00
72685;BME280;61365;52.162;4.500;2024-03-25T10:27:20;100588.50;;;11.43;100.00
72685;BME280;61365;52.162;4.500;2024-03-25T10:29:47;100588.13;;;11.85;100.00
72685;BME280;61365;52.162;4.500;2024-03-25T10:32:17;100580.22;;;11.86;100.00
72685;BME280;61365;52.162;4.500;2024-03-25T10:34:43;100585.88;;;12.30;100.00
72685;BME280;61365;52.162;4.500;2024-03-25T10:37:10;100578.81;;;12.36;100.00
72685;BME280;61365;52.162;4.500;2024-03-25T10:39:50;100583.94;;;12.46;100.00
72685;BME280;61365;52.162;4.500;2024-03-25T10:42:20;100577.31;;;12.16;100.00
72685;BME280;61365;52.162;4.500;2024-03-25T10:44:47;100564.53;;;11.77;100.00
72685;BME280;61365;52.162;4.500;2024-03-25T10:47:20;100565.84;;;12.22;100.00
72685;BME280;61365;52.162;4.500;2024-03-25T10:49:50;100562.34;;;12.21;100.00
72685;BME280;61365;52.162;4.500;2024-03-25T10:52:22;100561.91;;;12.54;100.00
72685;BME280;61365;52.162;4.500;2024-03-25T10:54:50;100556.09;;;12.30;100.00
72685;BME280;61365;52.162;4.500;2024-03-25T10:57:16;100547.28;;;12.95;100.00
72685;BME280;61365;52.162;4.500;2024-03-25T10:59:43;100550.53;;;12.50;100.00
72685;BME280;61365;52.162;4.500;2024-03-25T11:02:10;100546.63;;;13.35;100.00
72685;BME280;61365;52.162;4.500;2024-03-25T11:04:38;100546.06;;;12.60;100.00
72685;BME280;61365;52.162;4.500;2024-03-25T11:07:09;100542.53;;;12.61;100.00
72685;BME280;61365;52.162;4.500;2024-03-25T11:09:37;100540.38;;;12.86;100.00
72685;BME280;61365;52.162;4.500;2024-03-25T11:12:03;100539.78;;;11.97;100.00
72685;BME280;61365;52.162;4.500;2024-03-25T11:14:29;100528.34;;;12.04;100.00
72685;BME280;61365;52.162;4.500;2024-03-25T11:16:57;100526.16;;;12.39;100.00
72685;BME280;61365;52.162;4.500;2024-03-25T11:19:27;100531.66;;;12.19;100.00
72685;BME280;61365;52.162;4.500;2024-03-25T11:22:06;100525.59;;;12.13;100.00
72685;BME280;61365;52.162;4.500;2024-03-25T11:24:34;100520.97;;;12.34;100.00
72685;BME280;61365;52.162;4.500;2024-03-25T11:27:02;100514.34;;;12.02;100.00
72685;BME280;61365;52.162;4.500;2024-03-25T11:29:32;100498.44;;;12.13;98.19
72685;BME280;61365;52.162;4.500;2024-03-25T11:32:01;100503.88;;;11.96;92.25
72685;BME280;61365;52.162;4.500;2024-03-25T11:34:30;100491.75;;;11.81;87.21
72685;BME280;61365;52.162;4.500;2024-03-25T11:36:56;100492.13;;;12.23;96.33
72685;BME280;61365;52.162;4.500;2024-03-25T11:39:23;100491.81;;;11.79;92.80
72685;BME280;61365;52.162;4.500;2024-03-25T11:41:54;100483.78;;;11.90;83.15
72685;BME280;61365;52.162;4.500;2024-03-25T11:44:20;100486.09;;;12.16;86.30
72685;BME280;61365;52.162;4.500;2024-03-25T11:46:51;100479.47;;;12.52;91.19
72685;BME280;61365;52.162;4.500;2024-03-25T11:49:20;100474.34;;;12.44;100.00
72685;BME280;61365;52.162;4.500;2024-03-25T11:51:46;100469.31;;;12.27;100.00
72685;BME280;61365;52.162;4.500;2024-03-25T11:54:13;100471.59;;;12.50;100.00
72685;BME280;61365;52.162;4.500;2024-03-25T11:56:39;100466.03;;;12.70;93.80
72685;BME280;61365;52.162;4.500;2024-03-25T11:59:06;100477.66;;;11.88;100.00
72685;BME280;61365;52.162;4.500;2024-03-25T12:01:32;100480.66;;;12.32;100.00
72685;BME280;61365;52.162;4.500;2024-03-25T12:04:17;100475.84;;;11.92;94.80
72685;BME280;61365;52.162;4.500;2024-03-25T12:06:47;100465.59;;;12.42;100.00
72685;BME280;61365;52.162;4.500;2024-03-25T12:09:13;100470.16;;;12.29;94.64
72685;BME280;61365;52.162;4.500;2024-03-25T12:11:58;100471.25;;;12.14;96.23
72685;BME280;61365;52.162;4.500;2024-03-25T12:14:24;100460.22;;;12.50;98.39
72685;BME280;61365;52.162;4.500;2024-03-25T12:16:55;100451.59;;;12.95;80.20
72685;BME280;61365;52.162;4.500;2024-03-25T12:19:24;100446.97;;;12.56;94.40
72685;BME280;61365;52.162;4.500;2024-03-25T12:21:58;100448.06;;;12.39;94.15
72685;BME280;61365;52.162;4.500;2024-03-25T12:24:26;100458.25;;;11.98;83.84
72685;BME280;61365;52.162;4.500;2024-03-25T12:26:52;100453.22;;;11.81;89.65
72685;BME280;61365;52.162;4.500;2024-03-25T12:29:18;100447.38;;;12.26;95.45
72685;BME280;61365;52.162;4.500;2024-03-25T12:31:53;100450.59;;;12.47;100.00
72685;BME280;61365;52.162;4.500;2024-03-25T12:34:22;100445.50;;;12.35;91.64
72685;BME280;61365;52.162;4.500;2024-03-25T12:36:50;100450.09;;;12.22;98.73
72685;BME280;61365;52.162;4.500;2024-03-25T12:39:20;100437.13;;;12.08;100.00
72685;BME280;61365;52.162;4.500;2024-03-25T12:41:46;100429.66;;;12.39;100.00
72685;BME280;61365;52.162;4.500;2024-03-25T12:44:12;100426.16;;;12.37;100.00
72685;BME280;61365;52.162;4.500;2024-03-25T12:46:39;100421.09;;;12.23;84.99
72685;BME280;61365;52.162;4.500;2024-03-25T12:49:05;100420.09;;;12.35;100.00